Orbital elements of IRIDIUM 33 DEB
| Launched | 13 September 1997 |
| Flight ended | – |
| Launch site | Tyuratam Missile and Space Center, Kazakhstan (Also known as Baikonur Cosmodrome) |
| Owner | United States |
| NORAD ID | 33862 |
| Date fetched |
Epoch osculation |
Inc. [°] |
Ecc. | RA asc node [hr] |
Arg Peri. [°] |
Mean anom [°] |
Mean motion [rev/day] |
Abs. mag |
| Date fetched |
Epoch osculation |
Inc. [°] |
Ecc. | RA asc node [hr] |
Arg Peri. [°] |
Mean anom [°] |
Mean motion [rev/day] |
Abs. mag |
| 2026 May 07 17:58 | 2026 May 05 02:19:19 | 86.4086 | 0.00467 | 22.2766 | 293.1409 | 190.9803 | 14.72950 | – |
| 2026 May 06 17:57 | 2026 May 05 02:19:19 | 86.4086 | 0.00467 | 22.2766 | 293.1409 | 190.9803 | 14.72950 | – |
| 2026 May 05 17:57 | 2026 May 05 02:19:19 | 86.4086 | 0.00467 | 22.2766 | 293.1409 | 190.9803 | 14.72950 | – |
| 2026 May 04 17:57 | 2026 Apr 30 14:14:30 | 86.4094 | 0.00473 | 22.4097 | 309.4677 | 190.9803 | 14.72950 | – |
| 2026 May 03 17:57 | 2026 Apr 30 14:14:30 | 86.4094 | 0.00473 | 22.4097 | 309.4677 | 190.9803 | 14.72950 | – |
| 2026 May 02 17:57 | 2026 Apr 30 14:14:30 | 86.4094 | 0.00473 | 22.4097 | 309.4677 | 190.9803 | 14.72950 | – |
| 2026 May 01 17:56 | 2026 Apr 30 14:14:30 | 86.4094 | 0.00473 | 22.4097 | 309.4677 | 190.9803 | 14.72950 | – |
| 2026 Apr 30 17:56 | 2026 Apr 30 14:14:30 | 86.4094 | 0.00473 | 22.4097 | 309.4677 | 190.9803 | 14.72950 | – |
| 2026 Apr 29 17:57 | 2026 Apr 24 08:55:12 | 86.4103 | 0.00484 | 22.5935 | 331.5356 | 190.9803 | 14.72950 | – |
| 2026 Apr 28 17:56 | 2026 Apr 24 08:55:12 | 86.4103 | 0.00484 | 22.5935 | 331.5356 | 190.9803 | 14.72950 | – |
| 2026 Apr 27 17:58 | 2026 Apr 24 08:55:12 | 86.4103 | 0.00484 | 22.5935 | 331.5356 | 190.9803 | 14.72950 | – |
| 2026 Apr 26 17:58 | 2026 Apr 24 08:55:12 | 86.4103 | 0.00484 | 22.5935 | 331.5356 | 190.9803 | 14.72950 | – |
| 2026 Apr 25 17:58 | 2026 Apr 24 08:55:12 | 86.4103 | 0.00484 | 22.5935 | 331.5356 | 190.9803 | 14.72950 | – |
| 2026 Apr 24 17:59 | 2026 Apr 24 08:55:12 | 86.4103 | 0.00484 | 22.5935 | 331.5356 | 190.9803 | 14.72950 | – |
| 2026 Apr 23 17:57 | 2026 Apr 19 09:52:51 | 86.4102 | 0.00494 | 22.7401 | 348.7766 | 190.9803 | 14.72950 | – |
| 2026 Apr 22 17:57 | 2026 Apr 19 09:52:51 | 86.4102 | 0.00494 | 22.7401 | 348.7766 | 190.9803 | 14.72950 | – |
| 2026 Apr 21 17:57 | 2026 Apr 19 09:52:51 | 86.4102 | 0.00494 | 22.7401 | 348.7766 | 190.9803 | 14.72950 | – |
| 2026 Apr 20 17:57 | 2026 Apr 19 09:52:51 | 86.4102 | 0.00494 | 22.7401 | 348.7766 | 190.9803 | 14.72950 | – |
| 2026 Apr 19 17:58 | 2026 Apr 19 09:52:51 | 86.4102 | 0.00494 | 22.7401 | 348.7766 | 190.9803 | 14.72950 | – |
| 2026 Apr 18 17:56 | 2026 Apr 13 03:46:01 | 86.4117 | 0.00505 | 22.9248 | 9.8972 | 190.9803 | 14.72950 | – |
| 2026 Apr 16 17:57 | 2026 Apr 13 03:46:01 | 86.4117 | 0.00505 | 22.9248 | 9.8972 | 190.9803 | 14.72950 | – |
| 2026 Apr 14 17:57 | 2026 Apr 13 03:46:01 | 86.4117 | 0.00505 | 22.9248 | 9.8972 | 190.9803 | 14.72950 | – |
| 2026 Apr 13 17:57 | 2026 Apr 13 03:46:01 | 86.4117 | 0.00505 | 22.9248 | 9.8972 | 190.9803 | 14.72950 | – |
| 2026 Apr 12 17:57 | 2026 Apr 08 11:19:58 | 86.4111 | 0.00512 | 23.0631 | 25.5397 | 190.9803 | 14.72950 | – |
| 2026 Apr 11 17:57 | 2026 Apr 08 11:19:58 | 86.4111 | 0.00512 | 23.0631 | 25.5397 | 190.9803 | 14.72950 | – |
| 2026 Apr 10 17:58 | 2026 Apr 08 11:19:58 | 86.4111 | 0.00512 | 23.0631 | 25.5397 | 190.9803 | 14.72950 | – |